Time;durP1;ratioP1;P1;durP2;ratioP2;P2;SDS_P1;SDS_P2;PMS_P1;PMS_P2;Temp;Humidity;BMP_temperature;BMP_pressure;BME280_temperature;BME280_humidity;BME280_pressure;Samples;Min_cycle;Max_cycle;Signal;HPM_P1;HPM_P2
2021/12/18 00:00:48;;;;;;;36.47;12.55;;;2.30;99.90;;;;;;5007921;28;20025;-69
2021/12/18 00:03:14;;;;;;;35.33;12.00;;;2.30;99.90;;;;;;5007797;28;20474;-69
2021/12/18 00:05:39;;;;;;;36.88;13.27;;;2.30;99.90;;;;;;5007234;28;20060;-69
2021/12/18 00:08:05;;;;;;;33.20;12.57;;;2.30;99.90;;;;;;5008058;28;20064;-68
2021/12/18 00:10:31;;;;;;;39.50;13.48;;;2.30;99.90;;;;;;5008749;28;20072;-69
2021/12/18 00:12:57;;;;;;;39.47;12.48;;;2.30;99.90;;;;;;5007970;28;20034;-68
2021/12/18 00:15:24;;;;;;;38.88;12.80;;;2.30;99.90;;;;;;5008838;28;20026;-69
2021/12/18 00:17:50;;;;;;;33.97;12.65;;;2.30;99.90;;;;;;5008728;28;20041;-69
2021/12/18 00:20:17;;;;;;;32.95;12.00;;;2.30;99.90;;;;;;5009854;28;20037;-69
2021/12/18 00:22:44;;;;;;;34.10;11.65;;;2.20;99.90;;;;;;5012632;28;20038;-69
2021/12/18 00:25:10;;;;;;;33.78;11.32;;;2.20;99.90;;;;;;5009823;28;20026;-69
2021/12/18 00:27:36;;;;;;;38.72;13.27;;;2.20;99.90;;;;;;5012026;28;20128;-69
2021/12/18 00:30:04;;;;;;;36.45;12.18;;;2.20;99.90;;;;;;5011319;28;20117;-68
2021/12/18 00:32:30;;;;;;;32.63;11.23;;;2.30;99.90;;;;;;5012015;28;20030;-69
2021/12/18 00:34:56;;;;;;;36.60;12.05;;;2.30;99.90;;;;;;4994598;28;20061;-69
2021/12/18 00:37:22;;;;;;;33.35;12.00;;;2.30;99.90;;;;;;5010781;28;20038;-69
2021/12/18 00:39:55;;;;;;;37.40;12.65;;;2.20;99.90;;;;;;5011455;28;20510;-70
2021/12/18 00:42:46;;;;;;;35.75;12.32;;;2.20;99.90;;;;;;5011139;28;20025;-69
2021/12/18 00:45:16;;;;;;;35.15;12.10;;;2.10;99.90;;;;;;5011272;28;20030;-69
2021/12/18 00:47:43;;;;;;;;;;;2.10;99.90;;;;;;5012307;28;20184;-69
2021/12/18 00:50:12;;;;;;;34.28;11.80;;;2.10;99.90;;;;;;5010543;28;19913;-70
2021/12/18 00:52:38;;;;;;;37.97;12.13;;;2.10;99.90;;;;;;5011769;28;20026;-70
2021/12/18 00:55:04;;;;;;;39.05;12.43;;;2.20;99.90;;;;;;5010101;28;20101;-69
2021/12/18 00:57:30;;;;;;;34.60;12.20;;;2.20;99.90;;;;;;5010763;28;20516;-70
2021/12/18 01:00:00;;;;;;;37.97;12.07;;;2.20;99.90;;;;;;4993917;28;20117;-69
2021/12/18 01:02:28;;;;;;;35.40;12.70;;;2.20;99.90;;;;;;5010531;28;20033;-69
2021/12/18 01:04:54;;;;;;;40.45;13.80;;;2.20;99.90;;;;;;5011450;28;20117;-69
2021/12/18 01:07:20;;;;;;;31.30;11.02;;;2.20;99.90;;;;;;5007332;28;20570;-69
2021/12/18 01:10:00;;;;;;;35.90;12.00;;;2.20;99.90;;;;;;5011123;28;20036;-69
2021/12/18 01:12:31;;;;;;;38.78;11.23;;;2.10;99.90;;;;;;5009433;28;20034;-69
2021/12/18 01:15:17;;;;;;;34.75;11.50;;;2.10;99.90;;;;;;5011283;28;20126;-69
2021/12/18 01:23:13;;;;;;;32.28;10.43;;;2.10;99.90;;;;;;5009884;28;20041;-69
2021/12/18 01:25:39;;;;;;;30.17;10.70;;;2.10;99.90;;;;;;5010503;28;21558;-69
2021/12/18 01:28:04;;;;;;;29.20;9.88;;;2.10;99.90;;;;;;5009471;28;20050;-68
2021/12/18 01:30:31;;;;;;;29.50;9.75;;;2.10;99.90;;;;;;5010798;28;20044;-69
2021/12/18 01:32:57;;;;;;;32.35;11.10;;;2.00;99.90;;;;;;5010248;28;20443;-69
2021/12/18 01:35:23;;;;;;;29.50;10.05;;;2.00;99.90;;;;;;5009720;28;20105;-69
2021/12/18 01:37:50;;;;;;;29.27;10.27;;;2.00;99.90;;;;;;5010765;28;20064;-69
2021/12/18 01:40:16;;;;;;;33.28;10.50;;;2.10;99.90;;;;;;5009675;28;20042;-69
2021/12/18 01:53:18;;;;;;;32.03;10.02;;;1.90;99.90;;;;;;5007454;28;20033;-69
2021/12/18 01:55:44;;;;;;;30.23;9.73;;;1.90;99.90;;;;;;5010035;28;20025;-69
2021/12/18 01:58:10;;;;;;;31.80;10.45;;;1.90;99.90;;;;;;5009561;28;20041;-69
2021/12/18 02:00:42;;;;;;;34.80;10.52;;;1.90;99.90;;;;;;5010254;28;20034;-69
2021/12/18 02:03:08;;;;;;;29.98;10.48;;;1.90;99.90;;;;;;5009721;28;20033;-68
2021/12/18 02:05:34;;;;;;;29.77;10.65;;;2.00;99.90;;;;;;5010417;28;20426;-69
2021/12/18 02:08:00;;;;;;;30.02;10.73;;;2.00;99.90;;;;;;5008969;28;20025;-69
2021/12/18 02:10:30;;;;;;;31.95;10.80;;;2.00;99.90;;;;;;5009077;28;20382;-69
2021/12/18 02:21:06;;;;;;;30.88;10.30;;;2.10;99.90;;;;;;5010676;28;20398;-70
2021/12/18 02:23:36;;;;;;;29.17;9.38;;;2.10;99.90;;;;;;5009416;28;20030;-69
2021/12/18 02:26:02;;;;;;;33.05;10.57;;;2.10;99.90;;;;;;5008488;28;20536;-69
2021/12/18 02:28:28;;;;;;;30.10;10.02;;;2.10;99.90;;;;;;5008967;28;20061;-69
2021/12/18 02:30:56;;;;;;;27.17;9.35;;;2.10;99.90;;;;;;5009773;28;20360;-69
2021/12/18 02:33:23;;;;;;;29.48;10.23;;;2.10;99.90;;;;;;5008604;28;20441;-69
2021/12/18 02:35:51;;;;;;;31.23;10.55;;;2.10;99.90;;;;;;5009163;28;20076;-69
2021/12/18 02:38:24;;;;;;;33.17;9.73;;;2.10;99.90;;;;;;5008662;28;20065;-69
2021/12/18 02:41:15;;;;;;;29.13;10.52;;;2.10;99.90;;;;;;5009340;28;20132;-69
2021/12/18 02:43:41;;;;;;;30.63;10.18;;;2.10;99.90;;;;;;5008543;28;20022;-69
2021/12/18 02:46:09;;;;;;;28.52;9.68;;;2.20;99.90;;;;;;5009246;28;20046;-68
2021/12/18 02:48:38;;;;;;;30.67;9.85;;;2.10;99.90;;;;;;5009550;28;20032;-69
2021/12/18 02:51:05;;;;;;;26.58;9.27;;;2.20;99.90;;;;;;5008366;28;20064;-69
2021/12/18 02:53:33;;;;;;;28.63;9.77;;;2.10;99.90;;;;;;5009144;28;20037;-69
2021/12/18 02:56:04;;;;;;;30.67;10.10;;;2.10;99.90;;;;;;5009122;28;20136;-69
2021/12/18 02:58:30;;;;;;;21.63;7.85;;;2.10;99.90;;;;;;5007317;28;20038;-69
2021/12/18 03:00:58;;;;;;;31.83;10.38;;;2.10;99.90;;;;;;5007600;28;20033;-69
2021/12/18 03:03:28;;;;;;;31.77;10.45;;;2.10;99.90;;;;;;5006801;28;20034;-69
2021/12/18 03:09:00;;;;;;;32.08;10.10;;;2.10;99.90;;;;;;5008569;28;20040;-69
2021/12/18 03:25:09;;;;;;;30.48;10.18;;;2.30;99.90;;;;;;5008005;28;20036;-72
2021/12/18 03:27:35;;;;;;;35.40;11.32;;;2.20;99.90;;;;;;5007765;28;20060;-70
2021/12/18 03:30:01;;;;;;;38.20;11.73;;;2.30;99.90;;;;;;5009408;28;20034;-69
2021/12/18 03:32:27;;;;;;;36.75;12.25;;;2.30;99.90;;;;;;5004692;28;20117;-69
2021/12/18 03:34:53;;;;;;;40.42;12.95;;;2.30;99.90;;;;;;5009190;28;20045;-69
2021/12/18 03:37:20;;;;;;;36.45;11.93;;;2.20;99.90;;;;;;5007815;28;20040;-69
2021/12/18 03:39:47;;;;;;;41.38;13.00;;;2.20;99.90;;;;;;5008747;28;20026;-69
2021/12/18 03:42:12;;;;;;;38.35;12.43;;;2.20;99.90;;;;;;5008400;28;20037;-68
2021/12/18 03:44:39;;;;;;;37.92;12.40;;;2.20;99.90;;;;;;5001596;28;20042;-69
2021/12/18 03:47:05;;;;;;;39.08;12.15;;;2.20;99.90;;;;;;4993664;28;20391;-69
2021/12/18 03:49:31;;;;;;;39.03;12.35;;;2.20;99.90;;;;;;5004779;28;20096;-69
2021/12/18 03:51:57;;;;;;;36.78;11.90;;;2.10;99.90;;;;;;5005472;28;20026;-69
2021/12/18 03:54:23;;;;;;;36.60;11.02;;;2.10;99.90;;;;;;5000553;28;20034;-69
2021/12/18 03:56:48;;;;;;;44.10;12.85;;;2.10;99.90;;;;;;5012664;28;20355;-69
2021/12/18 03:59:14;;;;;;;37.65;11.63;;;2.30;99.90;;;;;;5009949;28;20399;-69
2021/12/18 04:01:40;;;;;;;37.35;11.32;;;2.20;99.90;;;;;;5011299;28;20978;-70
2021/12/18 04:04:06;;;;;;;35.85;11.70;;;2.20;99.90;;;;;;5012734;28;20033;-69
2021/12/18 04:06:32;;;;;;;36.42;11.45;;;2.20;99.90;;;;;;5011857;28;20645;-69
2021/12/18 04:08:58;;;;;;;37.58;12.52;;;2.20;99.90;;;;;;5006237;28;20031;-69
2021/12/18 04:11:24;;;;;;;33.88;11.13;;;2.20;99.90;;;;;;4992656;28;20026;-69
2021/12/18 04:13:50;;;;;;;39.75;11.70;;;2.20;99.90;;;;;;5005722;28;20033;-69
2021/12/18 04:16:17;;;;;;;41.80;11.70;;;2.20;99.90;;;;;;5003097;28;20496;-68
2021/12/18 04:18:42;;;;;;;38.72;12.15;;;2.20;99.90;;;;;;5004567;28;20041;-69
2021/12/18 04:21:08;;;;;;;35.42;11.55;;;2.30;99.90;;;;;;5012038;28;20036;-69
2021/12/18 04:23:34;;;;;;;41.80;12.40;;;2.20;99.90;;;;;;5011837;28;20029;-69
2021/12/18 04:26:00;;;;;;;36.55;11.35;;;2.20;99.90;;;;;;5012692;28;20034;-69
2021/12/18 04:28:26;;;;;;;36.60;11.48;;;2.20;99.90;;;;;;5011104;28;20065;-69
2021/12/18 04:30:52;;;;;;;30.95;10.52;;;2.20;99.90;;;;;;5007723;28;20051;-70
2021/12/18 04:33:18;;;;;;;32.00;10.23;;;2.20;99.90;;;;;;5011500;28;20025;-69
2021/12/18 04:35:44;;;;;;;27.52;9.38;;;2.20;99.90;;;;;;5011742;28;20470;-69
2021/12/18 04:38:10;;;;;;;29.13;8.57;;;2.20;99.90;;;;;;5011425;28;20033;-69
2021/12/18 04:40:35;;;;;;;25.10;8.27;;;2.20;99.90;;;;;;5011201;28;20030;-69
2021/12/18 04:43:02;;;;;;;24.23;8.02;;;2.10;99.90;;;;;;5011805;28;20442;-69
2021/12/18 04:45:29;;;;;;;27.05;8.38;;;2.10;99.90;;;;;;5010883;28;20038;-69
2021/12/18 04:47:55;;;;;;;22.33;7.75;;;2.10;99.90;;;;;;5010114;28;20397;-70
2021/12/18 04:50:22;;;;;;;29.17;8.68;;;2.10;99.90;;;;;;5011040;28;20044;-69
2021/12/18 04:52:48;;;;;;;25.45;8.38;;;2.00;99.90;;;;;;5011955;28;20038;-69
2021/12/18 04:55:15;;;;;;;26.67;8.13;;;2.00;99.90;;;;;;5010193;28;20034;-68
2021/12/18 04:57:40;;;;;;;27.10;8.23;;;2.10;99.90;;;;;;5011232;28;20038;-69
2021/12/18 05:00:09;;;;;;;26.08;8.25;;;2.00;99.90;;;;;;5011360;28;20537;-69
2021/12/18 05:02:41;;;;;;;27.33;9.35;;;2.00;99.90;;;;;;5011328;28;20038;-68
2021/12/18 05:05:10;;;;;;;27.83;8.43;;;2.00;99.90;;;;;;5011229;28;20112;-69
2021/12/18 05:07:36;;;;;;;26.98;8.32;;;2.00;99.90;;;;;;5010987;28;20037;-69
2021/12/18 05:10:04;;;;;;;28.10;8.82;;;2.00;99.90;;;;;;5009818;28;20044;-69
2021/12/18 05:12:30;;;;;;;30.35;9.13;;;2.00;99.90;;;;;;5010138;28;20038;-69
2021/12/18 05:14:56;;;;;;;33.03;8.48;;;1.90;99.90;;;;;;5011379;28;20037;-69
2021/12/18 05:17:21;;;;;;;27.20;8.38;;;2.00;99.90;;;;;;5010101;28;20042;-69
2021/12/18 05:19:47;;;;;;;33.78;10.02;;;1.90;99.90;;;;;;5011589;28;20064;-69
2021/12/18 05:22:13;;;;;;;26.88;8.45;;;2.00;99.90;;;;;;5009762;28;20033;-69
2021/12/18 05:24:39;;;;;;;30.45;9.32;;;1.90;99.90;;;;;;5009660;28;20112;-70
2021/12/18 05:27:05;;;;;;;29.55;9.15;;;1.90;99.90;;;;;;5010737;28;20606;-69
2021/12/18 05:29:31;;;;;;;28.65;8.93;;;1.90;99.90;;;;;;5009864;28;20052;-69
2021/12/18 05:31:56;;;;;;;29.17;9.63;;;1.80;99.90;;;;;;5009395;28;20469;-69
2021/12/18 05:34:25;;;;;;;28.70;9.18;;;1.80;99.90;;;;;;5010024;28;20475;-68
2021/12/18 05:39:24;;;;;;;30.33;8.93;;;1.90;99.90;;;;;;5008203;28;20119;-67
2021/12/18 05:41:50;;;;;;;31.13;10.18;;;1.90;99.90;;;;;;5004922;28;20402;-65
2021/12/18 05:44:18;;;;;;;27.60;9.00;;;1.70;99.90;;;;;;5015824;28;20509;-67
2021/12/18 05:46:45;;;;;;;26.27;8.23;;;1.60;99.90;;;;;;5030134;28;20034;-66
2021/12/18 05:49:11;;;;;;;27.58;8.63;;;1.60;99.90;;;;;;4995684;28;20037;-66
2021/12/18 05:51:37;;;;;;;26.58;9.40;;;1.60;99.90;;;;;;5015634;28;20115;-65
2021/12/18 05:54:04;;;;;;;27.08;8.23;;;1.60;99.90;;;;;;5020792;28;20029;-66
2021/12/18 05:56:30;;;;;;;28.25;8.45;;;1.60;99.90;;;;;;5029731;28;20032;-65
2021/12/18 05:58:56;;;;;;;26.00;8.65;;;1.70;99.90;;;;;;5026363;28;20034;-66
2021/12/18 06:01:23;;;;;;;21.48;7.13;;;1.60;99.90;;;;;;5029594;28;20391;-67
2021/12/18 06:03:49;;;;;;;25.10;7.20;;;1.60;99.90;;;;;;5029689;28;20083;-66
2021/12/18 06:06:15;;;;;;;26.75;8.25;;;1.70;99.90;;;;;;5030290;28;20717;-66
2021/12/18 06:08:42;;;;;;;21.90;7.88;;;1.70;99.90;;;;;;5028527;28;20026;-66
2021/12/18 06:11:16;;;;;;;22.65;7.75;;;1.70;99.90;;;;;;5017712;28;20033;-66
2021/12/18 06:13:44;;;;;;;53.45;22.50;;;1.70;99.90;;;;;;5016464;28;20080;-66
2021/12/18 06:16:10;;;;;;;29.20;9.95;;;1.70;99.90;;;;;;5004888;28;20065;-66
2021/12/18 06:18:44;;;;;;;27.05;9.15;;;1.80;99.90;;;;;;5027859;28;20461;-66
2021/12/18 06:21:13;;;;;;;50.80;20.45;;;1.80;99.90;;;;;;5030010;28;20393;-65
2021/12/18 06:23:42;;;;;;;68.38;26.95;;;1.90;99.90;;;;;;5025438;28;20256;-66
2021/12/18 06:26:08;;;;;;;28.60;9.90;;;1.90;99.90;;;;;;5029583;28;20048;-65
2021/12/18 06:28:34;;;;;;;46.92;17.63;;;1.90;99.90;;;;;;5028625;28;20060;-66
2021/12/18 06:31:01;;;;;;;29.35;9.43;;;1.90;99.90;;;;;;5029499;28;20022;-66
2021/12/18 06:33:27;;;;;;;33.33;12.00;;;1.90;99.90;;;;;;5024204;28;20087;-67
2021/12/18 06:35:53;;;;;;;32.03;11.73;;;1.90;99.90;;;;;;5028602;28;20048;-67
2021/12/18 06:38:18;;;;;;;46.10;21.83;;;1.90;99.90;;;;;;5043598;28;20065;-66
2021/12/18 06:40:44;;;;;;;31.92;14.27;;;1.80;99.90;;;;;;5020081;28;20030;-66
2021/12/18 06:43:10;;;;;;;24.35;8.70;;;1.90;99.90;;;;;;5025836;28;20124;-66
2021/12/18 06:45:36;;;;;;;29.83;9.98;;;1.90;99.90;;;;;;5019045;28;20030;-66
2021/12/18 06:48:02;;;;;;;26.48;9.43;;;1.90;99.90;;;;;;5006185;28;20037;-67
2021/12/18 06:50:28;;;;;;;28.52;10.45;;;1.80;99.90;;;;;;5024500;28;20462;-67
2021/12/18 06:52:54;;;;;;;25.10;9.00;;;1.80;99.90;;;;;;5010188;28;20104;-66
2021/12/18 06:55:20;;;;;;;35.25;13.15;;;1.80;99.90;;;;;;5007780;28;20064;-66
2021/12/18 06:57:46;;;;;;;29.23;9.82;;;1.90;99.90;;;;;;5009410;28;20463;-66
2021/12/18 07:00:13;;;;;;;26.83;9.95;;;1.90;99.90;;;;;;5009236;28;20088;-66
2021/12/18 07:02:40;;;;;;;41.13;15.93;;;1.90;99.90;;;;;;5008573;28;20092;-66
2021/12/18 07:05:07;;;;;;;27.77;9.93;;;1.90;99.90;;;;;;5009477;28;20463;-66
2021/12/18 07:07:32;;;;;;;22.80;8.48;;;2.00;99.90;;;;;;5008544;28;20037;-66
2021/12/18 07:09:58;;;;;;;25.85;9.45;;;2.00;99.90;;;;;;5009508;28;20083;-66
2021/12/18 07:12:24;;;;;;;29.92;12.00;;;2.00;99.90;;;;;;5008727;28;20032;-67
2021/12/18 07:14:50;;;;;;;26.30;9.45;;;2.00;99.90;;;;;;5009607;28;20041;-66
2021/12/18 07:17:15;;;;;;;25.95;9.13;;;1.90;99.90;;;;;;5008186;28;20433;-67
2021/12/18 07:19:41;;;;;;;33.05;12.52;;;2.00;99.90;;;;;;5008865;28;20045;-66
2021/12/18 07:22:07;;;;;;;44.80;15.63;;;1.90;99.90;;;;;;5007825;28;20036;-66
2021/12/18 07:24:32;;;;;;;47.72;16.75;;;1.90;99.90;;;;;;5007640;28;20477;-66
2021/12/18 07:26:58;;;;;;;37.20;14.05;;;2.00;99.90;;;;;;5009420;28;20558;-66
2021/12/18 07:29:24;;;;;;;28.80;9.30;;;2.00;99.90;;;;;;5011177;28;20073;-67
2021/12/18 07:31:51;;;;;;;31.95;12.30;;;2.00;99.90;;;;;;5013333;28;20657;-66
2021/12/18 07:34:17;;;;;;;28.48;9.95;;;2.00;99.90;;;;;;5012143;28;20037;-66
2021/12/18 07:36:43;;;;;;;28.70;11.18;;;2.00;99.90;;;;;;5012474;28;20046;-67
2021/12/18 07:39:09;;;;;;;28.67;10.20;;;2.10;99.90;;;;;;5015752;28;20033;-66
2021/12/18 07:41:34;;;;;;;26.80;9.63;;;2.10;99.90;;;;;;5016331;28;20033;-66
2021/12/18 07:44:01;;;;;;;30.60;9.45;;;2.10;99.90;;;;;;5032851;28;20034;-65
2021/12/18 07:46:27;;;;;;;27.67;9.05;;;2.10;99.90;;;;;;5026460;28;20038;-67
2021/12/18 07:48:52;;;;;;;26.27;9.27;;;2.10;99.90;;;;;;5013205;28;20429;-67
2021/12/18 07:51:19;;;;;;;26.33;9.80;;;2.20;99.90;;;;;;5013316;28;20242;-67
2021/12/18 07:53:44;;;;;;;25.33;9.13;;;2.10;99.90;;;;;;5012145;28;20576;-66
2021/12/18 07:56:10;;;;;;;29.00;10.35;;;2.10;99.90;;;;;;5012238;28;20021;-66
2021/12/18 07:58:37;;;;;;;28.55;9.18;;;2.10;99.90;;;;;;5011774;28;20410;-66
2021/12/18 08:01:03;;;;;;;26.83;9.90;;;2.10;99.90;;;;;;5012961;28;20080;-66
2021/12/18 08:03:29;;;;;;;25.15;9.40;;;2.10;99.90;;;;;;5012484;28;20033;-66
2021/12/18 08:05:55;;;;;;;31.58;11.25;;;2.10;99.90;;;;;;5013238;28;20077;-66
2021/12/18 08:08:21;;;;;;;27.85;11.18;;;2.10;99.90;;;;;;5013143;28;20092;-66
2021/12/18 08:10:47;;;;;;;31.60;11.05;;;2.10;99.90;;;;;;5012119;28;20105;-66
2021/12/18 08:13:13;;;;;;;32.05;11.05;;;2.10;99.90;;;;;;5012853;28;20030;-66
2021/12/18 08:15:38;;;;;;;31.95;12.50;;;2.10;99.90;;;;;;5012212;28;20493;-66
2021/12/18 08:18:07;;;;;;;61.92;24.00;;;2.10;99.90;;;;;;5012242;28;20084;-66
2021/12/18 08:20:34;;;;;;;85.82;42.17;;;2.10;99.90;;;;;;5012238;28;20033;-66
2021/12/18 08:23:01;;;;;;;40.88;17.90;;;2.20;99.90;;;;;;5012864;28;20029;-66
2021/12/18 08:25:30;;;;;;;28.42;9.73;;;2.20;99.90;;;;;;5012277;28;20110;-66
2021/12/18 08:27:58;;;;;;;25.77;11.52;;;2.30;99.90;;;;;;5012804;28;20049;-65
2021/12/18 08:30:25;;;;;;;41.10;15.93;;;2.20;99.90;;;;;;5012774;28;20022;-66
2021/12/18 08:32:51;;;;;;;52.17;21.50;;;2.20;99.90;;;;;;5011712;28;20034;-66
2021/12/18 08:35:17;;;;;;;30.45;11.75;;;2.20;99.90;;;;;;5012712;28;20105;-66
2021/12/18 08:37:42;;;;;;;32.08;11.93;;;2.10;99.90;;;;;;5011573;28;20402;-66
2021/12/18 08:40:09;;;;;;;29.13;12.48;;;2.10;99.90;;;;;;5011761;28;20232;-66
2021/12/18 08:42:35;;;;;;;24.38;8.98;;;2.20;99.90;;;;;;5011774;28;20033;-65
2021/12/18 08:45:01;;;;;;;25.80;9.75;;;2.20;99.90;;;;;;5012571;28;20056;-66
2021/12/18 08:47:26;;;;;;;25.00;9.07;;;2.20;99.90;;;;;;5011707;28;20072;-66
2021/12/18 08:49:52;;;;;;;26.88;10.10;;;2.30;99.90;;;;;;5008789;28;20029;-67
2021/12/18 08:52:18;;;;;;;24.80;9.70;;;2.30;99.90;;;;;;5004664;28;20049;-66
2021/12/18 08:54:44;;;;;;;22.75;8.50;;;2.30;99.90;;;;;;5010164;28;20076;-66
2021/12/18 08:57:10;;;;;;;28.08;9.88;;;2.30;99.90;;;;;;5012328;28;20467;-66
2021/12/18 08:59:37;;;;;;;30.50;10.35;;;2.30;99.90;;;;;;5011477;28;20038;-66
2021/12/18 09:02:03;;;;;;;36.13;13.38;;;2.40;99.90;;;;;;5008819;28;20031;-66
2021/12/18 09:04:29;;;;;;;24.13;8.68;;;2.40;99.90;;;;;;5011823;28;20030;-66
2021/12/18 09:06:55;;;;;;;26.13;8.60;;;2.40;99.90;;;;;;5011741;28;20378;-65
2021/12/18 09:09:21;;;;;;;25.02;8.55;;;2.40;99.90;;;;;;5011080;28;20118;-65
2021/12/18 09:11:47;;;;;;;22.30;8.68;;;2.40;99.90;;;;;;5010312;28;20173;-66
2021/12/18 09:14:13;;;;;;;25.27;8.80;;;2.40;99.90;;;;;;5011485;28;20463;-66
2021/12/18 09:16:38;;;;;;;29.33;9.40;;;2.40;99.90;;;;;;5008116;28;20030;-65
2021/12/18 09:19:04;;;;;;;27.30;10.20;;;2.40;99.90;;;;;;5010172;28;20092;-64
2021/12/18 09:21:29;;;;;;;28.95;10.10;;;2.40;99.90;;;;;;5009830;28;20463;-68
2021/12/18 09:23:55;;;;;;;25.77;9.68;;;2.40;99.90;;;;;;5010195;28;20034;-63
2021/12/18 09:26:21;;;;;;;29.15;9.95;;;2.30;99.90;;;;;;5010556;28;20033;-66
2021/12/18 09:28:47;;;;;;;25.77;9.95;;;2.40;99.90;;;;;;5009167;28;20052;-64
2021/12/18 09:31:13;;;;;;;45.67;10.75;;;2.40;99.90;;;;;;5010223;28;20100;-64
2021/12/18 09:33:38;;;;;;;25.50;9.48;;;2.40;99.90;;;;;;5015963;28;20493;-64
2021/12/18 09:36:04;;;;;;;34.30;9.85;;;2.30;99.90;;;;;;5010420;28;20481;-63
2021/12/18 09:38:30;;;;;;;27.70;9.70;;;2.30;99.90;;;;;;5010604;28;20034;-68
2021/12/18 09:41:00;;;;;;;22.77;8.75;;;2.40;99.90;;;;;;5010682;28;20049;-65
2021/12/18 09:43:26;;;;;;;28.25;10.32;;;2.40;99.90;;;;;;5010229;28;20557;-64
2021/12/18 09:45:53;;;;;;;27.55;10.45;;;2.50;99.90;;;;;;5009844;28;20651;-65
2021/12/18 09:48:21;;;;;;;27.67;9.88;;;2.60;99.90;;;;;;5005206;28;20054;-64
2021/12/18 09:50:55;;;;;;;30.95;10.82;;;2.70;99.90;;;;;;5010002;28;20497;-66
2021/12/18 09:53:21;;;;;;;29.20;9.88;;;2.70;99.90;;;;;;5008116;28;20096;-67
2021/12/18 09:55:46;;;;;;;32.45;11.82;;;2.70;99.90;;;;;;5009769;28;20037;-65
2021/12/18 09:58:12;;;;;;;33.80;12.25;;;2.80;99.90;;;;;;5009305;28;20042;-65
2021/12/18 10:00:38;;;;;;;30.30;11.25;;;2.90;99.90;;;;;;5008638;28;20041;-64
2021/12/18 10:03:03;;;;;;;30.60;10.90;;;2.90;99.90;;;;;;5008387;28;20100;-64
2021/12/18 10:05:34;;;;;;;38.60;14.60;;;2.90;99.90;;;;;;5009767;28;20038;-64
2021/12/18 10:08:06;;;;;;;36.95;13.20;;;2.90;99.90;;;;;;5007792;28;20037;-64
2021/12/18 10:10:32;;;;;;;30.65;11.60;;;2.80;99.90;;;;;;5009300;28;20494;-68
2021/12/18 10:13:09;;;;;;;37.65;13.98;;;2.80;99.90;;;;;;5008370;28;20084;-65
2021/12/18 10:15:37;;;;;;;36.72;13.32;;;2.70;99.90;;;;;;5008324;28;20034;-68
2021/12/18 10:18:12;;;;;;;31.52;11.65;;;2.70;99.90;;;;;;5005201;28;20482;-66
2021/12/18 10:20:38;;;;;;;48.60;23.48;;;2.80;99.90;;;;;;5009782;28;20508;-65
2021/12/18 10:23:05;;;;;;;40.03;12.27;;;2.80;99.90;;;;;;5010364;28;20025;-66
2021/12/18 10:25:38;;;;;;;37.28;14.20;;;2.90;99.90;;;;;;5010192;28;20434;-67
2021/12/18 10:28:14;;;;;;;31.83;12.43;;;2.90;99.90;;;;;;5009603;28;20121;-64
2021/12/18 10:30:49;;;;;;;37.40;14.48;;;2.90;99.90;;;;;;5007419;28;20088;-64
2021/12/18 10:33:16;;;;;;;28.13;11.20;;;3.00;99.90;;;;;;5003414;28;20030;-64
2021/12/18 10:36:02;;;;;;;27.40;10.70;;;3.00;99.90;;;;;;5003326;28;20758;-65
2021/12/18 10:38:37;;;;;;;25.67;10.35;;;3.00;99.90;;;;;;5009571;28;20069;-65
2021/12/18 10:41:25;;;;;;;36.72;12.82;;;2.90;99.90;;;;;;5008275;28;20034;-65
2021/12/18 10:44:03;;;;;;;41.58;14.35;;;2.90;99.90;;;;;;5001944;28;20066;-66
2021/12/18 10:46:30;;;;;;;48.70;18.63;;;2.90;99.90;;;;;;5010150;28;20033;-65
2021/12/18 10:48:58;;;;;;;66.38;27.48;;;3.00;99.90;;;;;;5008278;28;20037;-66
2021/12/18 10:51:25;;;;;;;37.17;15.90;;;3.10;99.90;;;;;;5007847;28;20440;-66
2021/12/18 10:53:52;;;;;;;37.17;15.13;;;3.10;99.90;;;;;;5008320;28;20040;-64
2021/12/18 10:56:37;;;;;;;66.20;36.33;;;3.10;99.90;;;;;;5009059;28;20033;-66
2021/12/18 10:59:06;;;;;;;39.60;14.18;;;3.20;99.90;;;;;;5002302;28;20114;-64
2021/12/18 11:01:36;;;;;;;90.72;44.60;;;3.10;99.90;;;;;;5009673;28;20049;-67
2021/12/18 11:04:02;;;;;;;39.00;14.30;;;3.20;99.90;;;;;;5007563;28;20037;-65
2021/12/18 11:06:32;;;;;;;37.10;13.55;;;3.20;99.90;;;;;;5009209;28;20042;-65
2021/12/18 11:09:05;;;;;;;52.42;21.60;;;3.20;99.90;;;;;;5009212;28;20036;-66
2021/12/18 11:14:23;;;;;;;40.03;13.75;;;3.10;99.90;;;;;;5008467;28;20172;-66
2021/12/18 11:17:01;;;;;;;42.70;15.48;;;3.00;99.90;;;;;;5008252;28;20458;-64
2021/12/18 11:19:32;;;;;;;38.35;14.40;;;3.10;99.90;;;;;;5009174;28;20172;-65
2021/12/18 11:22:04;;;;;;;42.60;14.50;;;3.10;99.90;;;;;;5016460;28;20032;-66
2021/12/18 11:25:11;;;;;;;38.78;14.60;;;3.10;99.90;;;;;;5005872;28;20069;-64
2021/12/18 11:27:38;;;;;;;40.22;14.80;;;3.10;99.90;;;;;;5005757;28;20407;-68
2021/12/18 11:30:13;;;;;;;42.60;15.57;;;3.10;99.90;;;;;;5018256;28;20077;-64
2021/12/18 11:32:44;;;;;;;50.05;17.35;;;3.10;99.90;;;;;;5008803;28;20038;-68
2021/12/18 11:35:14;;;;;;;43.50;14.68;;;3.20;99.90;;;;;;5006760;28;20030;-67
2021/12/18 11:37:47;;;;;;;42.57;16.03;;;3.20;99.90;;;;;;5006707;28;20037;-68
2021/12/18 11:40:19;;;;;;;38.22;14.93;;;3.20;99.90;;;;;;5007868;28;20109;-66
2021/12/18 11:42:46;;;;;;;44.78;15.65;;;3.20;99.90;;;;;;5004007;28;20030;-66
2021/12/18 11:45:13;;;;;;;43.78;15.65;;;3.30;99.90;;;;;;5007197;28;20128;-65
2021/12/18 11:47:40;;;;;;;75.47;22.35;;;3.30;99.90;;;;;;5006395;28;20069;-69
2021/12/18 11:50:32;;;;;;;90.68;26.63;;;3.30;99.90;;;;;;5007749;28;20040;-66
2021/12/18 11:53:00;;;;;;;41.42;14.70;;;3.30;99.90;;;;;;5006767;28;20034;-65
2021/12/18 11:55:48;;;;;;;43.65;15.30;;;3.30;99.90;;;;;;5008807;28;20034;-65
2021/12/18 11:58:34;;;;;;;37.95;13.68;;;3.20;99.90;;;;;;4999516;28;20418;-65
2021/12/18 12:01:25;;;;;;;41.78;15.13;;;3.30;99.90;;;;;;5007335;28;20655;-65
2021/12/18 12:03:50;;;;;;;44.53;15.23;;;3.30;99.90;;;;;;5006686;28;20145;-65
2021/12/18 12:06:20;;;;;;;46.67;16.63;;;3.30;99.90;;;;;;5007099;28;20471;-65
2021/12/18 12:08:49;;;;;;;40.38;14.50;;;3.30;99.90;;;;;;5007539;28;20033;-66
2021/12/18 12:11:25;;;;;;;49.92;17.77;;;3.40;99.90;;;;;;5008067;28;20036;-65
2021/12/18 12:14:11;;;;;;;47.17;16.50;;;3.40;99.90;;;;;;5001747;28;20038;-66
2021/12/18 12:16:46;;;;;;;50.88;16.48;;;3.40;99.90;;;;;;5008822;28;20512;-66
2021/12/18 12:19:18;;;;;;;40.40;15.23;;;3.40;99.90;;;;;;5010999;28;20037;-66
2021/12/18 12:21:55;;;;;;;43.80;16.52;;;3.30;99.90;;;;;;5009354;28;20034;-66
2021/12/18 12:24:23;;;;;;;43.15;16.35;;;3.20;99.90;;;;;;5011591;28;20041;-66
2021/12/18 12:26:50;;;;;;;43.75;15.25;;;3.20;99.90;;;;;;5011002;28;20121;-64
2021/12/18 12:29:17;;;;;;;48.70;17.63;;;3.10;99.90;;;;;;5012228;28;20482;-66
2021/12/18 12:32:07;;;;;;;46.80;17.90;;;3.10;99.90;;;;;;5010696;28;20063;-68
2021/12/18 12:34:36;;;;;;;46.50;18.05;;;3.10;99.90;;;;;;5010504;28;20042;-67
2021/12/18 12:37:23;;;;;;;45.38;15.65;;;3.20;99.90;;;;;;5009500;28;20541;-67
2021/12/18 12:39:54;;;;;;;40.90;14.48;;;3.20;99.90;;;;;;5010678;28;20073;-66
2021/12/18 12:42:20;;;;;;;44.30;14.30;;;3.20;99.90;;;;;;5010932;28;20044;-66
2021/12/18 12:44:56;;;;;;;42.72;15.10;;;3.20;99.90;;;;;;5010879;28;20029;-67
2021/12/18 12:47:24;;;;;;;46.88;16.35;;;3.20;99.90;;;;;;5010811;28;20049;-66
2021/12/18 12:49:55;;;;;;;50.55;17.42;;;3.30;99.90;;;;;;5010910;28;20053;-65
2021/12/18 12:52:24;;;;;;;48.25;16.63;;;3.30;99.90;;;;;;5010334;28;20030;-66
2021/12/18 12:54:54;;;;;;;50.70;17.85;;;3.30;99.90;;;;;;5009911;28;20030;-65
2021/12/18 12:57:23;;;;;;;48.60;16.70;;;3.30;99.90;;;;;;5010988;28;20435;-66
2021/12/18 13:00:16;;;;;;;46.03;17.17;;;3.40;99.90;;;;;;5010570;28;20096;-65
2021/12/18 13:02:58;;;;;;;40.58;14.38;;;3.40;99.90;;;;;;5010517;28;20036;-68
2021/12/18 13:05:27;;;;;;;50.28;17.40;;;3.30;99.90;;;;;;5011629;28;20052;-67
2021/12/18 13:08:01;;;;;;;55.67;20.80;;;3.30;99.90;;;;;;5009999;28;20589;-65
2021/12/18 13:10:35;;;;;;;42.97;16.33;;;3.30;99.90;;;;;;5002301;28;20034;-67
2021/12/18 13:13:08;;;;;;;45.83;16.88;;;3.30;99.90;;;;;;5009192;28;20034;-67
2021/12/18 13:16:02;;;;;;;43.55;15.63;;;3.30;99.90;;;;;;5010341;28;20057;-66
2021/12/18 13:18:29;;;;;;;50.53;17.30;;;3.20;99.90;;;;;;5010689;28;20073;-66
2021/12/18 13:21:08;;;;;;;42.53;15.18;;;3.30;99.90;;;;;;5007643;28;20026;-65
2021/12/18 13:23:51;;;;;;;42.60;15.43;;;3.30;99.90;;;;;;5010623;28;20096;-66
2021/12/18 13:26:23;;;;;;;78.85;24.48;;;3.20;99.90;;;;;;4994840;28;20109;-65
2021/12/18 13:28:55;;;;;;;51.72;17.27;;;3.10;99.90;;;;;;5002572;28;20060;-65
2021/12/18 13:31:24;;;;;;;50.47;17.30;;;3.00;99.90;;;;;;5008251;28;20270;-65
2021/12/18 13:34:23;;;;;;;48.45;17.15;;;3.00;99.90;;;;;;5009144;28;20072;-65